Time;durP1;ratioP1;P1;durP2;ratioP2;P2;SDS_P1;SDS_P2;PMS_P1;PMS_P2;Temp;Humidity;BMP_temperature;BMP_pressure;BME280_temperature;BME280_humidity;BME280_pressure;Samples;Min_cycle;Max_cycle;Signal;HPM_P1;HPM_P2
2022/04/11 00:00:25;;;;;;;2.23;0.90;;;16.10;54.00;;;;;;5057768;28;20435;-91
2022/04/11 00:02:50;;;;;;;1.23;1.10;;;16.10;53.90;;;;;;5056733;28;20185;-91
2022/04/11 00:05:16;;;;;;;0.93;0.90;;;16.10;53.90;;;;;;5056986;28;20172;-91
2022/04/11 00:07:42;;;;;;;1.17;1.00;;;16.10;53.80;;;;;;5057534;28;20263;-91
2022/04/11 00:10:08;;;;;;;1.43;1.10;;;16.10;53.70;;;;;;5056618;28;20176;-91
2022/04/11 00:12:36;;;;;;;1.50;1.10;;;16.10;53.70;;;;;;5056602;28;20192;-91
2022/04/11 00:15:06;;;;;;;1.77;1.27;;;16.10;53.60;;;;;;5058014;28;20180;-91
2022/04/11 00:17:32;;;;;;;3.03;1.10;;;16.10;53.60;;;;;;5058809;28;20208;-91
2022/04/11 00:19:58;;;;;;;1.47;1.10;;;16.10;53.50;;;;;;5059142;28;20200;-91
2022/04/11 00:22:23;;;;;;;1.20;1.10;;;16.10;53.50;;;;;;5059527;28;20219;-91
2022/04/11 00:24:50;;;;;;;1.30;1.10;;;16.10;53.40;;;;;;5059651;28;20213;-92
2022/04/11 00:27:16;;;;;;;1.20;1.10;;;16.10;53.40;;;;;;5044769;28;20232;-91
2022/04/11 00:29:41;;;;;;;1.20;1.10;;;16.20;53.30;;;;;;5056521;28;20169;-92
2022/04/11 00:32:08;;;;;;;0.80;0.80;;;16.10;53.20;;;;;;5056883;28;20177;-91
2022/04/11 00:34:35;;;;;;;1.20;1.00;;;16.20;53.10;;;;;;5057145;28;20208;-92
2022/04/11 00:37:00;;;;;;;1.10;1.00;;;16.10;53.00;;;;;;5058419;28;20195;-91
2022/04/11 00:39:26;;;;;;;1.10;1.00;;;16.20;53.00;;;;;;5058538;28;20275;-91
2022/04/11 00:41:52;;;;;;;1.80;1.20;;;16.10;52.80;;;;;;5057903;28;20265;-92
2022/04/11 00:44:18;;;;;;;1.10;1.00;;;16.10;52.80;;;;;;5058317;28;20618;-91
2022/04/11 00:46:43;;;;;;;1.40;1.10;;;16.20;52.80;;;;;;5058742;28;20183;-91
2022/04/11 00:49:09;;;;;;;1.20;1.10;;;16.10;52.70;;;;;;5057750;28;20436;-91
2022/04/11 00:51:35;;;;;;;1.17;1.07;;;16.20;52.70;;;;;;5058293;28;20278;-91
2022/04/11 00:54:03;;;;;;;1.07;0.97;;;16.20;52.60;;;;;;5058605;28;20559;-91
2022/04/11 00:56:29;;;;;;;1.10;1.00;;;16.20;52.60;;;;;;5058697;28;20184;-91
2022/04/11 00:58:56;;;;;;;0.97;0.90;;;16.20;52.60;;;;;;5058253;28;20366;-91
2022/04/11 01:01:22;;;;;;;1.10;1.00;;;16.20;52.50;;;;;;5057547;28;20218;-91
2022/04/11 01:03:48;;;;;;;1.17;1.00;;;16.20;52.50;;;;;;5057358;28;20184;-91
2022/04/11 01:06:14;;;;;;;1.17;0.97;;;16.20;52.40;;;;;;5058034;28;20176;-91
2022/04/11 01:08:40;;;;;;;1.10;1.00;;;16.20;52.40;;;;;;5057389;28;20172;-92
2022/04/11 01:11:06;;;;;;;1.40;1.30;;;16.20;52.40;;;;;;5057292;28;20309;-92
2022/04/11 01:13:32;;;;;;;1.30;1.13;;;16.20;52.40;;;;;;5057609;28;20186;-91
2022/04/11 01:16:00;;;;;;;1.93;1.03;;;16.20;52.30;;;;;;5057645;28;20181;-92
2022/04/11 01:18:27;;;;;;;2.07;1.00;;;16.20;52.20;;;;;;5057644;28;20560;-92
2022/04/11 01:20:53;;;;;;;1.83;1.20;;;16.20;52.20;;;;;;5057388;28;20270;-92
2022/04/11 01:23:19;;;;;;;1.30;1.20;;;16.20;52.20;;;;;;5058657;28;20180;-92
2022/04/11 01:25:51;;;;;;;1.87;1.00;;;16.20;52.20;;;;;;5057419;28;20164;-92
2022/04/11 01:28:17;;;;;;;1.40;1.10;;;16.20;52.20;;;;;;5058843;28;20174;-92
2022/04/11 01:33:42;;;;;;;1.37;1.10;;;16.20;52.20;;;;;;5056070;28;20179;-91
2022/04/11 01:36:08;;;;;;;1.27;1.00;;;16.20;52.10;;;;;;5055429;28;20177;-90
2022/04/11 01:38:34;;;;;;;0.90;0.90;;;16.20;52.10;;;;;;5054121;28;20165;-91
2022/04/11 01:40:59;;;;;;;1.20;1.10;;;16.20;52.10;;;;;;5055691;28;20197;-91
2022/04/11 01:43:25;;;;;;;1.43;1.20;;;16.20;52.00;;;;;;5055007;28;20191;-90
2022/04/11 01:45:52;;;;;;;1.20;1.10;;;16.20;52.00;;;;;;5054584;28;20177;-90
2022/04/11 01:48:18;;;;;;;1.17;0.90;;;16.20;51.90;;;;;;5056046;28;20222;-90
2022/04/11 01:50:44;;;;;;;1.20;1.10;;;16.20;51.80;;;;;;5055533;28;20168;-90
2022/04/11 01:53:16;;;;;;;1.77;1.27;;;16.30;51.80;;;;;;5056187;28;20179;-90
2022/04/11 01:55:41;;;;;;;1.57;1.13;;;16.30;51.70;;;;;;5055080;28;20232;-90
2022/04/11 01:58:08;;;;;;;1.30;1.20;;;16.30;52.10;;;;;;5055814;28;20177;-90
2022/04/11 02:00:35;;;;;;;2.10;1.00;;;16.30;51.60;;;;;;5055683;28;20184;-91
2022/04/11 02:03:05;;;;;;;1.30;1.20;;;16.30;51.50;;;;;;5055725;28;20168;-90
2022/04/11 02:05:31;;;;;;;1.10;1.00;;;16.30;51.40;;;;;;5055308;28;20166;-90
2022/04/11 02:07:57;;;;;;;1.20;1.10;;;16.30;51.40;;;;;;5054791;28;20165;-90
2022/04/11 02:10:24;;;;;;;1.77;1.07;;;16.30;51.30;;;;;;5055593;28;20442;-90
2022/04/11 02:12:51;;;;;;;0.97;0.97;;;16.30;51.30;;;;;;5054886;28;20170;-90
2022/04/11 02:15:17;;;;;;;1.10;1.00;;;16.40;51.20;;;;;;5054543;28;20377;-91
2022/04/11 02:17:46;;;;;;;1.47;1.00;;;16.40;51.20;;;;;;5054985;28;20204;-90
2022/04/11 02:20:11;;;;;;;1.10;1.00;;;16.30;51.10;;;;;;5054812;28;20222;-90
2022/04/11 02:22:51;;;;;;;1.23;1.13;;;16.30;51.10;;;;;;5054673;28;20225;-90
2022/04/11 02:25:22;;;;;;;1.20;1.00;;;16.30;51.10;;;;;;5053668;28;20168;-90
2022/04/11 02:27:48;;;;;;;1.30;1.20;;;16.40;51.00;;;;;;5054046;28;20176;-91
2022/04/11 02:30:16;;;;;;;1.37;1.10;;;16.30;51.00;;;;;;5053465;28;20191;-91
2022/04/11 02:32:43;;;;;;;1.10;1.00;;;16.40;50.90;;;;;;5054094;28;20178;-90
2022/04/11 02:35:09;;;;;;;1.60;1.30;;;16.30;50.90;;;;;;5055462;28;20173;-90
2022/04/11 02:37:35;;;;;;;1.77;1.20;;;16.30;50.90;;;;;;5054227;28;20172;-90
2022/04/11 02:40:01;;;;;;;1.97;1.10;;;16.30;51.00;;;;;;5055266;28;20177;-90
2022/04/11 02:42:28;;;;;;;1.33;1.07;;;16.20;51.10;;;;;;5054931;28;20489;-91
2022/04/11 02:44:55;;;;;;;1.70;1.10;;;16.10;51.10;;;;;;5054736;28;20447;-91
2022/04/11 02:47:21;;;;;;;1.50;1.00;;;16.10;51.20;;;;;;5053018;28;20177;-91
2022/04/11 02:49:47;;;;;;;1.20;1.10;;;16.10;51.30;;;;;;5054242;28;20186;-90
2022/04/11 02:52:14;;;;;;;1.33;1.20;;;16.00;51.30;;;;;;5054312;28;20544;-90
2022/04/11 02:54:40;;;;;;;1.97;1.23;;;16.00;51.30;;;;;;5055175;28;20229;-91
2022/04/11 02:57:07;;;;;;;1.50;1.10;;;15.90;51.40;;;;;;5054950;28;20180;-92
2022/04/11 02:59:33;;;;;;;1.10;1.00;;;15.90;51.40;;;;;;5057223;28;20183;-92
2022/04/11 03:02:01;;;;;;;1.63;1.10;;;15.90;51.40;;;;;;5056350;28;20243;-92
2022/04/11 03:04:27;;;;;;;1.43;1.33;;;15.80;51.40;;;;;;5056359;28;20550;-92
2022/04/11 03:06:53;;;;;;;1.33;1.07;;;15.90;51.30;;;;;;5056388;28;20271;-92
2022/04/11 03:09:19;;;;;;;1.33;1.20;;;16.10;51.00;;;;;;5056252;28;20168;-92
2022/04/11 03:11:45;;;;;;;1.50;1.10;;;17.40;49.50;;;;;;5056158;28;20178;-91
2022/04/11 03:14:11;;;;;;;1.30;1.20;;;18.70;47.40;;;;;;5056594;28;20208;-91
2022/04/11 03:16:37;;;;;;;1.30;1.00;;;19.80;45.50;;;;;;5056656;28;20201;-92
2022/04/11 03:19:03;;;;;;;1.30;1.00;;;20.50;44.30;;;;;;5056253;28;20204;-92
2022/04/11 03:21:29;;;;;;;1.00;0.90;;;21.00;43.60;;;;;;5055778;28;20214;-91
2022/04/11 03:23:55;;;;;;;1.40;0.90;;;21.20;43.20;;;;;;5056328;28;20181;-92
2022/04/11 03:26:20;;;;;;;1.47;1.00;;;21.40;42.90;;;;;;5059902;28;20171;-92
2022/04/11 03:28:46;;;;;;;1.30;1.17;;;21.40;42.60;;;;;;5059987;28;20582;-90
2022/04/11 03:31:12;;;;;;;1.67;1.00;;;21.50;42.60;;;;;;5057359;28;20245;-90
2022/04/11 03:33:38;;;;;;;2.33;1.10;;;21.30;42.60;;;;;;5057348;28;20258;-90
2022/04/11 03:36:05;;;;;;;1.10;1.00;;;21.20;42.70;;;;;;5056919;28;20650;-91
2022/04/11 03:38:31;;;;;;;0.90;0.90;;;20.90;42.90;;;;;;5055568;28;20175;-91
2022/04/11 03:40:57;;;;;;;2.00;1.00;;;20.60;43.10;;;;;;5057413;28;20597;-90
2022/04/11 03:43:23;;;;;;;1.10;1.00;;;20.30;43.40;;;;;;5056129;28;20173;-91
2022/04/11 03:45:48;;;;;;;1.03;0.90;;;20.10;43.70;;;;;;5057353;28;20180;-91
2022/04/11 03:48:14;;;;;;;1.10;1.00;;;19.80;44.00;;;;;;5056797;28;20183;-91
2022/04/11 03:50:40;;;;;;;1.10;1.00;;;19.50;44.20;;;;;;5057584;28;20186;-90
2022/04/11 03:53:06;;;;;;;1.43;1.10;;;19.30;44.60;;;;;;5057057;28;20191;-90
2022/04/11 03:55:31;;;;;;;1.27;1.17;;;19.10;44.90;;;;;;5056316;28;20244;-90
2022/04/11 03:57:57;;;;;;;1.10;1.00;;;18.80;45.10;;;;;;5058586;28;20176;-91
2022/04/11 04:00:23;;;;;;;1.63;1.10;;;18.60;45.40;;;;;;5057164;28;20204;-90
2022/04/11 04:02:49;;;;;;;1.20;1.10;;;18.50;45.60;;;;;;5056872;28;20209;-91
2022/04/11 04:05:15;;;;;;;1.10;1.00;;;18.30;45.90;;;;;;5056257;28;20224;-91
2022/04/11 04:07:41;;;;;;;1.30;1.20;;;18.10;46.10;;;;;;5056072;28;20560;-91
2022/04/11 04:10:07;;;;;;;1.00;0.90;;;17.90;46.40;;;;;;5056576;28;20202;-91
2022/04/11 04:12:33;;;;;;;1.50;1.10;;;17.70;46.50;;;;;;5055980;28;20286;-91
2022/04/11 04:15:00;;;;;;;1.77;1.20;;;17.60;46.80;;;;;;5056415;28;20273;-92
2022/04/11 04:17:26;;;;;;;1.10;1.00;;;17.50;47.10;;;;;;5056433;28;20176;-91
2022/04/11 04:19:52;;;;;;;1.60;1.20;;;17.30;47.20;;;;;;5055838;28;20198;-91
2022/04/11 04:22:18;;;;;;;1.10;1.00;;;17.20;47.40;;;;;;5055594;28;20206;-91
2022/04/11 04:24:44;;;;;;;3.33;1.10;;;17.10;47.60;;;;;;5055279;28;20183;-91
2022/04/11 04:27:10;;;;;;;1.10;1.00;;;17.00;47.70;;;;;;5054667;28;20329;-91
2022/04/11 04:29:36;;;;;;;1.37;1.10;;;16.90;47.80;;;;;;5054912;28;20172;-91
2022/04/11 04:32:02;;;;;;;1.57;0.90;;;16.80;48.00;;;;;;5054573;28;20205;-91
2022/04/11 04:34:31;;;;;;;1.10;1.00;;;16.80;48.10;;;;;;5055767;28;20186;-91
2022/04/11 04:37:00;;;;;;;1.10;1.00;;;16.70;48.20;;;;;;5053392;28;20185;-91
2022/04/11 04:39:26;;;;;;;1.10;1.00;;;16.70;48.30;;;;;;5054455;28;20176;-91
2022/04/11 04:41:52;;;;;;;1.00;0.90;;;16.60;48.40;;;;;;5054939;28;20351;-91
2022/04/11 04:44:17;;;;;;;2.00;0.97;;;16.60;48.40;;;;;;5055205;28;20173;-91
2022/04/11 04:46:43;;;;;;;1.10;1.00;;;16.60;48.50;;;;;;5054712;28;20198;-91
2022/04/11 04:49:09;;;;;;;1.10;1.00;;;16.60;48.50;;;;;;5053948;28;20257;-91
2022/04/11 04:51:34;;;;;;;1.00;0.90;;;16.60;48.40;;;;;;5055666;28;20238;-91
2022/04/11 04:54:00;;;;;;;1.17;1.00;;;16.70;48.50;;;;;;5054965;28;20177;-91
2022/04/11 04:56:28;;;;;;;1.20;1.00;;;16.80;48.40;;;;;;5054850;28;20190;-91
2022/04/11 04:58:54;;;;;;;0.97;0.90;;;17.20;48.10;;;;;;5054310;28;20568;-91
2022/04/11 05:01:20;;;;;;;1.10;1.00;;;17.90;47.20;;;;;;5054065;28;20202;-91
2022/04/11 05:03:45;;;;;;;1.13;0.90;;;18.70;46.10;;;;;;5053839;28;20208;-91
2022/04/11 05:06:11;;;;;;;1.10;1.00;;;19.40;45.00;;;;;;5052889;28;20207;-91
2022/04/11 05:08:37;;;;;;;1.13;1.00;;;20.20;44.00;;;;;;5054630;28;20453;-92
2022/04/11 05:11:03;;;;;;;0.80;0.80;;;20.70;43.10;;;;;;5056566;28;20269;-91
2022/04/11 05:13:28;;;;;;;1.00;1.00;;;21.00;42.60;;;;;;5057064;28;20193;-92
2022/04/11 05:15:54;;;;;;;0.90;0.90;;;21.10;42.30;;;;;;5056234;28;20180;-92
2022/04/11 05:18:20;;;;;;;0.83;0.83;;;21.00;42.30;;;;;;5055338;28;20282;-92
2022/04/11 05:20:51;;;;;;;1.23;1.13;;;20.90;42.30;;;;;;5056143;28;20191;-92
2022/04/11 05:23:20;;;;;;;1.03;0.97;;;20.60;42.60;;;;;;5055295;28;20249;-91
2022/04/11 05:25:46;;;;;;;1.03;1.00;;;20.40;42.70;;;;;;5055985;28;20290;-92
2022/04/11 05:28:12;;;;;;;0.70;0.70;;;20.20;43.00;;;;;;5054879;28;20170;-92
2022/04/11 05:30:38;;;;;;;2.17;1.00;;;20.00;43.10;;;;;;5054100;28;20176;-92
2022/04/11 05:33:03;;;;;;;1.40;1.00;;;19.80;43.40;;;;;;5054632;28;20184;-92
2022/04/11 05:35:30;;;;;;;1.07;1.00;;;19.40;43.70;;;;;;5054256;28;20192;-92
2022/04/11 05:37:56;;;;;;;0.80;0.80;;;19.20;44.00;;;;;;5053931;28;20175;-91
2022/04/11 05:40:22;;;;;;;1.00;0.90;;;19.00;44.30;;;;;;5055111;28;20278;-92
2022/04/11 05:42:48;;;;;;;0.80;0.80;;;18.80;44.60;;;;;;5054571;28;20222;-91
2022/04/11 05:45:14;;;;;;;1.10;1.00;;;18.70;44.70;;;;;;5053360;28;20171;-91
2022/04/11 05:47:39;;;;;;;0.83;0.80;;;18.60;44.80;;;;;;5053704;28;20627;-92
2022/04/11 05:50:06;;;;;;;1.10;1.00;;;18.50;45.00;;;;;;5052994;28;20309;-92
2022/04/11 05:52:31;;;;;;;0.80;0.80;;;18.40;45.10;;;;;;5051922;28;20177;-92
2022/04/11 05:54:57;;;;;;;1.20;1.10;;;18.40;45.20;;;;;;5051875;28;20229;-92
2022/04/11 05:57:23;;;;;;;1.07;0.90;;;18.30;45.30;;;;;;5052474;28;20567;-91
2022/04/11 05:59:49;;;;;;;1.33;0.90;;;18.20;45.40;;;;;;5052181;28;20196;-91
2022/04/11 06:02:15;;;;;;;1.10;1.00;;;18.10;45.50;;;;;;5051200;28;20261;-92
2022/04/11 06:04:41;;;;;;;1.10;1.00;;;18.00;45.60;;;;;;5052021;28;20533;-92
2022/04/11 06:07:07;;;;;;;1.10;1.00;;;18.00;45.70;;;;;;5051881;28;20179;-91
2022/04/11 06:09:32;;;;;;;0.90;0.90;;;17.90;45.80;;;;;;5052576;28;20275;-92
2022/04/11 06:11:59;;;;;;;1.10;1.00;;;17.90;45.90;;;;;;5052263;28;20638;-91
2022/04/11 06:14:25;;;;;;;1.03;0.93;;;17.80;45.90;;;;;;5052537;28;20221;-92
2022/04/11 06:16:50;;;;;;;1.10;1.00;;;17.80;46.00;;;;;;5052751;28;20194;-92
2022/04/11 06:19:19;;;;;;;1.10;1.00;;;17.80;46.10;;;;;;5053054;28;20182;-91
2022/04/11 06:21:44;;;;;;;1.23;1.00;;;17.80;46.10;;;;;;5052094;28;20310;-92
2022/04/11 06:24:10;;;;;;;1.50;1.20;;;17.70;46.10;;;;;;5051913;28;20211;-92
2022/04/11 06:26:36;;;;;;;1.47;1.27;;;17.80;46.10;;;;;;5052538;28;20277;-92
2022/04/11 06:29:02;;;;;;;1.30;1.20;;;17.90;46.00;;;;;;5052767;28;20179;-92
2022/04/11 06:31:28;;;;;;;1.27;1.17;;;17.90;45.90;;;;;;5051304;28;20188;-92
2022/04/11 06:33:53;;;;;;;1.30;1.00;;;17.90;45.80;;;;;;5051813;28;20180;-92
2022/04/11 06:36:19;;;;;;;1.00;1.00;;;18.00;45.80;;;;;;5051006;28;20184;-92
2022/04/11 06:38:45;;;;;;;1.67;1.00;;;18.10;45.70;;;;;;5049364;28;20187;-92
2022/04/11 06:41:11;;;;;;;1.20;1.10;;;18.30;45.50;;;;;;5048116;28;20212;-92
2022/04/11 06:43:37;;;;;;;1.20;1.00;;;18.50;45.30;;;;;;5049233;28;20608;-91
2022/04/11 06:46:03;;;;;;;1.40;1.10;;;18.80;44.90;;;;;;5048170;28;20227;-92
2022/04/11 06:48:30;;;;;;;1.20;1.10;;;19.20;44.50;;;;;;5048384;28;20176;-92
2022/04/11 06:50:55;;;;;;;1.37;1.10;;;19.50;44.10;;;;;;5048716;28;20184;-92
2022/04/11 06:53:21;;;;;;;0.90;0.90;;;19.70;43.80;;;;;;5049599;28;20211;-92
2022/04/11 06:55:47;;;;;;;1.10;1.00;;;19.80;43.70;;;;;;5049432;28;20462;-92
2022/04/11 06:58:15;;;;;;;1.17;1.07;;;19.90;43.50;;;;;;5047997;28;20251;-92
2022/04/11 07:00:42;;;;;;;1.20;1.10;;;19.90;43.40;;;;;;5048132;28;20172;-92
2022/04/11 07:03:08;;;;;;;1.40;1.20;;;20.00;43.20;;;;;;5048565;28;20170;-92
2022/04/11 07:05:34;;;;;;;1.20;1.10;;;20.00;43.20;;;;;;5049325;28;20210;-91
2022/04/11 07:08:00;;;;;;;1.13;1.03;;;20.00;43.20;;;;;;5048123;28;20222;-92
2022/04/11 07:10:25;;;;;;;1.30;1.10;;;19.90;43.20;;;;;;5049496;28;20169;-92
2022/04/11 07:12:51;;;;;;;1.30;1.20;;;20.00;43.30;;;;;;5050871;28;20597;-92
2022/04/11 07:15:18;;;;;;;1.53;1.30;;;20.00;43.20;;;;;;5050755;28;20361;-92
2022/04/11 07:17:44;;;;;;;1.27;1.07;;;19.90;43.20;;;;;;5049568;28;20204;-92
2022/04/11 07:20:10;;;;;;;1.53;1.10;;;19.90;43.30;;;;;;5049726;28;20217;-92
2022/04/11 07:22:36;;;;;;;1.47;1.23;;;19.90;43.30;;;;;;5047678;28;20211;-92
2022/04/11 07:25:03;;;;;;;1.40;1.30;;;19.80;43.30;;;;;;5049874;28;20184;-92
2022/04/11 07:27:28;;;;;;;1.10;1.00;;;19.80;43.40;;;;;;5049193;28;20172;-92
2022/04/11 07:29:54;;;;;;;1.33;1.23;;;19.80;43.50;;;;;;5048473;28;20164;-92
2022/04/11 07:32:20;;;;;;;1.10;1.00;;;19.80;43.50;;;;;;5048109;28;20176;-92
2022/04/11 07:34:46;;;;;;;1.20;1.10;;;19.80;43.60;;;;;;5049177;28;20253;-92
2022/04/11 07:37:11;;;;;;;1.03;0.93;;;19.80;43.60;;;;;;5049413;28;20267;-93
2022/04/11 07:39:37;;;;;;;1.33;1.23;;;19.70;43.60;;;;;;5050919;28;20270;-92
2022/04/11 07:42:03;;;;;;;1.00;0.90;;;19.70;43.60;;;;;;5052010;28;20299;-92
2022/04/11 07:44:29;;;;;;;1.43;1.20;;;19.70;43.70;;;;;;5050626;28;20247;-92
2022/04/11 07:46:55;;;;;;;1.10;1.00;;;19.70;43.70;;;;;;5047430;28;20730;-93
2022/04/11 07:49:21;;;;;;;1.60;1.13;;;19.80;43.60;;;;;;5047681;28;20234;-92
2022/04/11 07:51:47;;;;;;;1.50;1.00;;;19.80;43.60;;;;;;5048084;28;20168;-93
2022/04/11 07:54:13;;;;;;;1.33;1.10;;;19.80;43.60;;;;;;5047753;28;20452;-92
2022/04/11 07:56:38;;;;;;;1.20;1.10;;;19.80;43.60;;;;;;5048974;28;20176;-92
2022/04/11 07:59:04;;;;;;;1.50;1.10;;;19.80;43.50;;;;;;5049508;28;20459;-92
2022/04/11 08:01:30;;;;;;;1.47;1.20;;;19.80;43.50;;;;;;5046942;28;20242;-92
2022/04/11 08:03:56;;;;;;;0.90;0.90;;;19.90;43.50;;;;;;5047573;28;20633;-92
2022/04/11 08:06:22;;;;;;;1.40;1.10;;;19.90;43.60;;;;;;5048375;28;20181;-92
2022/04/11 08:08:48;;;;;;;1.47;1.20;;;19.80;43.60;;;;;;5048580;28;20271;-92
2022/04/11 08:11:18;;;;;;;1.20;1.10;;;19.80;43.60;;;;;;5047948;28;20458;-92
2022/04/11 08:13:44;;;;;;;1.20;1.10;;;19.90;43.70;;;;;;5050875;28;20168;-92
2022/04/11 08:16:10;;;;;;;2.50;1.10;;;20.00;43.90;;;;;;5051687;28;20180;-91
2022/04/11 08:18:36;;;;;;;2.17;0.97;;;20.00;43.90;;;;;;5050940;28;20250;-91
2022/04/11 08:21:03;;;;;;;2.27;1.20;;;20.10;43.90;;;;;;5052145;28;20207;-92
2022/04/11 08:23:29;;;;;;;2.83;1.20;;;20.10;43.90;;;;;;5050855;28;20179;-91
2022/04/11 08:25:55;;;;;;;2.90;1.10;;;20.20;43.80;;;;;;5049684;28;20168;-92
2022/04/11 08:28:21;;;;;;;1.63;1.27;;;20.20;43.70;;;;;;5050122;28;20164;-92
2022/04/11 08:30:47;;;;;;;5.13;1.60;;;20.30;43.60;;;;;;5050553;28;20253;-92
2022/04/11 08:33:13;;;;;;;2.53;1.20;;;20.40;43.50;;;;;;5051227;28;20164;-92
2022/04/11 08:35:39;;;;;;;3.43;1.37;;;20.40;43.40;;;;;;5050500;28;20168;-91
2022/04/11 08:38:05;;;;;;;2.17;1.27;;;20.60;43.30;;;;;;5051101;28;20347;-91
2022/04/11 08:40:35;;;;;;;2.17;1.20;;;20.60;43.10;;;;;;5050554;28;20164;-92
2022/04/11 08:43:02;;;;;;;5.27;1.40;;;20.60;43.10;;;;;;5051633;28;20243;-92
2022/04/11 08:45:29;;;;;;;4.63;1.60;;;20.70;43.00;;;;;;5050917;28;20451;-92
2022/04/11 08:47:56;;;;;;;1.90;1.30;;;20.80;42.90;;;;;;5051087;28;20176;-92
2022/04/11 08:50:23;;;;;;;3.83;1.20;;;20.80;42.80;;;;;;5051648;28;20172;-92
2022/04/11 08:52:54;;;;;;;1.87;1.40;;;20.80;42.90;;;;;;5050840;28;20169;-93
2022/04/11 08:55:23;;;;;;;2.63;1.30;;;20.80;42.80;;;;;;5050682;28;20172;-92
2022/04/11 08:57:49;;;;;;;4.00;1.70;;;20.80;42.80;;;;;;5051252;28;20229;-93
2022/04/11 09:00:19;;;;;;;2.80;1.30;;;20.80;42.70;;;;;;5050968;28;20182;-92
2022/04/11 09:02:45;;;;;;;2.20;1.30;;;20.90;42.80;;;;;;5048627;28;20634;-92
2022/04/11 09:05:17;;;;;;;2.03;1.37;;;20.90;42.90;;;;;;5050293;28;20240;-91
2022/04/11 09:07:47;;;;;;;1.40;1.30;;;20.90;42.80;;;;;;5049068;28;20172;-92
2022/04/11 09:10:21;;;;;;;3.27;1.40;;;21.00;42.90;;;;;;5050138;28;20164;-92
2022/04/11 09:12:50;;;;;;;4.40;1.20;;;21.10;42.80;;;;;;5051011;28;20299;-92
2022/04/11 09:15:16;;;;;;;2.50;1.10;;;21.20;42.80;;;;;;5051775;28;20168;-92
2022/04/11 09:17:43;;;;;;;2.30;1.23;;;21.20;42.70;;;;;;5050060;28;20175;-92
2022/04/11 09:20:11;;;;;;;5.70;1.60;;;21.30;42.70;;;;;;5049564;28;20203;-92
2022/04/11 09:22:37;;;;;;;3.23;1.43;;;21.30;42.60;;;;;;5050157;28;20272;-91
2022/04/11 09:25:08;;;;;;;3.63;1.20;;;21.40;42.60;;;;;;5049489;28;20180;-91
2022/04/11 09:27:34;;;;;;;1.80;1.30;;;21.40;42.50;;;;;;5049389;28;20180;-92
2022/04/11 09:30:00;;;;;;;3.80;1.43;;;21.50;42.50;;;;;;5047702;28;20403;-92
2022/04/11 09:32:26;;;;;;;3.70;1.37;;;21.50;42.40;;;;;;5049041;28;20176;-92
2022/04/11 09:34:56;;;;;;;2.47;1.60;;;21.60;42.40;;;;;;5048731;28;20271;-92
2022/04/11 09:37:22;;;;;;;2.70;1.50;;;21.60;42.30;;;;;;5048265;28;20457;-92
2022/04/11 09:39:58;;;;;;;2.45;1.33;;;21.60;42.30;;;;;;5046897;28;20337;-92
2022/04/11 09:42:31;;;;;;;4.00;1.20;;;21.50;42.30;;;;;;5047815;28;20246;-92
2022/04/11 09:45:00;;;;;;;4.37;1.20;;;21.20;42.50;;;;;;5050034;28;20567;-92
2022/04/11 09:47:26;;;;;;;7.93;1.70;;;20.80;42.90;;;;;;5048550;28;20465;-92
2022/04/11 09:49:52;;;;;;;3.92;1.48;;;20.60;43.90;;;;;;5048838;28;20570;-92
2022/04/11 09:52:19;;;;;;;5.40;1.60;;;20.50;43.70;;;;;;5049493;28;20180;-91
2022/04/11 09:54:52;;;;;;;5.70;1.60;;;20.30;44.00;;;;;;5048716;28;20575;-91
2022/04/11 09:57:18;;;;;;;5.07;1.70;;;20.00;44.00;;;;;;5047503;28;20431;-92
2022/04/11 09:59:45;;;;;;;5.65;1.50;;;19.80;44.20;;;;;;5048447;28;20431;-92
2022/04/11 10:02:17;;;;;;;4.70;1.50;;;19.70;44.30;;;;;;5046930;28;20204;-92
2022/04/11 10:04:46;;;;;;;3.53;1.80;;;19.50;44.40;;;;;;5047078;28;20172;-92
2022/04/11 10:07:12;;;;;;;4.30;1.33;;;19.50;44.40;;;;;;5047453;28;20373;-92
2022/04/11 10:09:42;;;;;;;3.45;1.42;;;19.40;44.50;;;;;;5047753;28;20184;-92
2022/04/11 10:12:09;;;;;;;3.07;1.40;;;19.40;44.60;;;;;;5047808;28;20184;-92
2022/04/11 10:14:35;;;;;;;2.28;1.30;;;19.40;44.60;;;;;;5048532;28;20194;-92
2022/04/11 10:17:02;;;;;;;2.93;1.30;;;19.40;44.60;;;;;;5048125;28;20176;-92
2022/04/11 10:19:31;;;;;;;6.63;1.23;;;19.40;44.70;;;;;;5047815;28;20184;-92
2022/04/11 10:22:06;;;;;;;4.10;1.40;;;19.30;44.80;;;;;;5047714;28;20400;-92
2022/04/11 10:24:34;;;;;;;3.60;1.40;;;19.30;44.90;;;;;;5053248;28;20180;-92
2022/04/11 10:27:22;;;;;;;3.10;1.37;;;19.30;45.00;;;;;;5058454;28;20238;-94
2022/04/11 10:29:52;;;;;;;2.93;1.30;;;19.30;45.10;;;;;;5054188;28;20242;-93
2022/04/11 10:32:27;;;;;;;3.63;1.40;;;19.30;45.10;;;;;;5054549;28;20204;-94
2022/04/11 10:34:57;;;;;;;2.20;1.30;;;19.30;45.20;;;;;;5050134;28;20176;-93
2022/04/11 10:37:39;;;;;;;2.20;1.30;;;19.20;45.20;;;;;;5050413;28;20222;-93
2022/04/11 10:40:17;;;;;;;2.90;1.60;;;19.20;45.20;;;;;;5052449;28;20642;-93
2022/04/11 10:43:01;;;;;;;3.93;1.43;;;19.20;45.20;;;;;;5048779;28;20219;-93
2022/04/11 10:45:35;;;;;;;2.87;1.30;;;19.10;45.20;;;;;;5046793;28;20429;-93
2022/04/11 10:48:05;;;;;;;2.20;1.40;;;19.10;45.20;;;;;;5046533;28;20816;-93
2022/04/11 10:50:37;;;;;;;3.83;1.60;;;19.10;45.10;;;;;;5045745;28;20183;-93
2022/04/11 10:53:29;;;;;;;2.50;1.17;;;19.10;45.20;;;;;;5046433;28;20179;-93
2022/04/11 10:56:05;;;;;;;4.30;1.30;;;19.10;45.20;;;;;;5044409;28;20194;-93
2022/04/11 10:58:45;;;;;;;3.13;1.53;;;19.10;45.30;;;;;;5045677;28;20190;-92
2022/04/11 11:01:12;;;;;;;3.43;1.63;;;19.10;45.30;;;;;;5044374;28;20339;-93
2022/04/11 11:03:41;;;;;;;2.53;1.50;;;19.10;45.30;;;;;;5046471;28;20184;-92
2022/04/11 11:06:25;;;;;;;1.97;1.20;;;19.10;45.30;;;;;;5046225;28;20179;-93
2022/04/11 11:08:51;;;;;;;2.40;1.43;;;19.10;45.20;;;;;;5049861;28;20528;-94
2022/04/11 11:11:25;;;;;;;2.27;1.30;;;19.10;45.30;;;;;;5051003;28;20187;-94
2022/04/11 11:13:53;;;;;;;1.83;1.30;;;19.00;45.10;;;;;;5051518;28;20173;-94
2022/04/11 11:16:20;;;;;;;2.57;1.50;;;19.00;44.90;;;;;;5052153;28;20176;-94
2022/04/11 11:18:51;;;;;;;2.90;1.30;;;19.00;44.50;;;;;;5053212;28;20195;-94
2022/04/11 11:21:43;;;;;;;3.40;1.37;;;19.00;44.60;;;;;;5051607;28;20211;-93
2022/04/11 11:24:12;;;;;;;2.10;1.40;;;19.00;44.50;;;;;;5051836;28;20484;-94
2022/04/11 11:26:37;;;;;;;1.67;1.30;;;18.90;44.40;;;;;;5050348;28;20225;-93
2022/04/11 11:29:14;;;;;;;2.53;1.47;;;18.90;44.30;;;;;;5049511;28;20415;-93
2022/04/11 11:31:40;;;;;;;1.97;1.53;;;18.90;44.30;;;;;;5050188;28;20184;-93
2022/04/11 11:34:14;;;;;;;3.20;1.27;;;18.90;44.40;;;;;;5039719;28;20189;-92
2022/04/11 11:36:41;;;;;;;2.67;1.30;;;18.90;44.50;;;;;;5033026;28;20179;-93
2022/04/11 11:39:16;;;;;;;2.97;1.50;;;18.90;44.70;;;;;;5035509;28;20247;-93
2022/04/11 11:41:43;;;;;;;2.37;1.17;;;18.90;44.80;;;;;;5028095;28;20310;-93
2022/04/11 11:44:09;;;;;;;3.63;1.30;;;18.90;44.90;;;;;;5026918;28;20239;-92
2022/04/11 11:47:04;;;;;;;2.63;1.40;;;18.90;44.90;;;;;;5039014;23;20281;-20
2022/04/11 11:49:49;;;;;;;2.83;1.30;;;18.90;45.00;;;;;;5030399;28;20575;-20
2022/04/11 11:52:21;;;;;;;3.00;1.30;;;18.90;45.10;;;;;;5037956;28;20258;-19
2022/04/11 11:54:50;;;;;;;1.80;1.27;;;18.90;45.20;;;;;;5038776;28;20176;-18
2022/04/11 11:57:27;;;;;;;3.37;1.40;;;18.90;45.30;;;;;;5038393;28;20149;-20
2022/04/11 12:00:08;;;;;;;2.83;1.30;;;18.90;45.30;;;;;;5038162;28;20176;-20
2022/04/11 12:05:26;;;;;;;2.03;1.10;;;18.90;45.40;;;;;;5038092;28;20528;-21
2022/04/11 12:08:14;;;;;;;2.43;1.30;;;19.00;45.50;;;;;;5037591;28;20176;-19
2022/04/11 12:10:44;;;;;;;1.47;1.23;;;18.90;45.50;;;;;;5038173;28;20173;-17
2022/04/11 12:13:11;;;;;;;1.57;1.10;;;18.90;45.60;;;;;;5038586;28;20200;-19
2022/04/11 12:15:38;;;;;;;1.10;1.00;;;19.00;45.60;;;;;;5037790;28;20169;-19
2022/04/11 12:18:09;;;;;;;1.50;1.10;;;19.00;45.70;;;;;;5037546;28;20169;-19
2022/04/11 12:20:36;;;;;;;2.60;1.20;;;19.00;45.70;;;;;;5038168;28;20176;-17
2022/04/11 12:23:12;;;;;;;2.07;1.13;;;18.90;45.70;;;;;;5037762;28;20207;-19
2022/04/11 12:25:40;;;;;;;1.70;1.10;;;18.90;45.70;;;;;;5037204;28;20171;-19
2022/04/11 12:28:26;;;;;;;2.57;1.20;;;19.00;45.80;;;;;;5037385;28;20165;-19
2022/04/11 12:31:03;;;;;;;1.73;1.10;;;19.00;45.90;;;;;;5037919;28;20176;-20
2022/04/11 12:33:48;;;;;;;1.93;1.20;;;19.00;45.90;;;;;;5038002;28;20160;-20
2022/04/11 12:36:22;;;;;;;1.90;1.10;;;19.00;46.00;;;;;;5037147;28;20169;-19
2022/04/11 12:38:48;;;;;;;1.47;1.20;;;18.90;46.00;;;;;;5038141;28;20212;-22
2022/04/11 12:41:32;;;;;;;2.63;1.10;;;18.90;46.00;;;;;;5036861;28;20556;-17
2022/04/11 12:44:10;;;;;;;1.47;1.00;;;18.90;46.00;;;;;;5037413;28;20261;-20
2022/04/11 12:46:44;;;;;;;2.03;1.30;;;19.00;46.10;;;;;;5037380;28;20184;-18
2022/04/11 12:49:12;;;;;;;2.77;1.20;;;19.00;46.20;;;;;;5037475;28;20642;-19
2022/04/11 12:51:39;;;;;;;1.53;1.30;;;19.00;46.20;;;;;;5036187;28;20237;-17
2022/04/11 12:54:11;;;;;;;2.07;1.10;;;19.00;46.20;;;;;;5036149;28;20192;-19
2022/04/11 12:56:42;;;;;;;2.00;1.10;;;19.00;46.20;;;;;;5036909;28;20211;-18